Fort Morgan, CO

5:14 AM MDT on September 17, 2014 (GMT -0600)
Fort Morgan | Change Station
CLOSE
Current Station
Personal Weather Station
Location: Fort Morgan, CO
Elevation: 4327 ft
Nearby Weather Stations

Elev 4327 ft 40.24 °N, 103.79 °W | Updated 4 seconds ago

Clear
Clear
50.0 °F
Feels Like 50.0 °F
N
0.7
Wind Variable Wind from South
Gusts 2.2 mph

Today
High -- | Low -- °F
--% Chance of Precip.
Yesterday
High -- | Low -- °F
Precip. -- in
6:38 AM 7:00 PM
Last Quarter, 37% visible
Pressure 30.03 in
Visibility 10.0 miles
Clouds Clear
Dew Point 44 °F
Humidity 81%
Rainfall 0.00 in
Snow Depth 0 in , 0 in , 0 in
UV 0.0 out of 12
Pollen 8.10 out of 12
Air Quality Not available.
Flu Activity Not available.
METAR KFMM 171055Z AUTO 00000KT 10SM CLR 11/05 A3003 RMK AO2 T01130051

More Conditions Fewer Conditions

Pressure 30.03 in
Visibility 10.0 miles
Clouds Clear
Dew Point 44 °F
Humidity 81%
Rainfall 0.00 in
Snow Depth 0 in , 0 in , 0 in
UV 0.0 out of 12
Pollen 8.10 out of 12
Air Quality Not available.
Flu Activity Not available.
METAR KFMM 171055Z AUTO 00000KT 10SM CLR 11/05 A3003 RMK AO2 T01130051

More Conditions Fewer Conditions

10-Day Weather Forecast

Almanac

Astronomy

Sep. 17, 2014 Rise Set
Actual Time 6:38 AM MDT 7:00 PM MDT
Civil Twilight 6:10 AM MDT 7:27 PM MDT
Nautical Twilight 5:38 AM MDT 7:59 PM MDT
Astronomical Twilight 5:05 AM MDT 8:32 PM MDT
Moon 12:39 AM MDT 3:12 PM MDT
Length of Visible Light 13h 16m
Length of Day
12h 22m
Tomorrow will be 2m 37s shorter.
Last Quarter, 37% of the Moon is Illuminated
Today
Last Quarter
Sep 24
New
Oct 1
First Quarter
Oct 8
Full
Oct 15
Last Quarter

Today's Extremes

State Highs State Lows

Community

WunderPhotos

Upload Photos

1,754,002 photos uploaded!

Nearby

Snow Depth

Station Depth Elevation
Michigan Creek 0 in 10600 ft
Phantom Valley 0 in 9030 ft
Vail Mountain 87 in 10300 ft
Upper Rio Grande 0 in 9400 ft
Apishapa 0 in 10000 ft

Earthquake Activity

City Distance Mag. Time & Date
No recent earthquake activity has been reported nearby.
Minimum magnitude displayed is 2.5.

Coastal Water Temperatures

Place Temperature
No Stations Reporting

Nearby Weather Stations